createdAt,value
2022-11-01T00:02:01.937Z,48.76
2022-11-01T00:05:06.571Z,49.68
2022-11-01T00:08:10.633Z,48.81
2022-11-01T00:11:18.462Z,48.95
2022-11-01T00:14:22.862Z,48.50
2022-11-01T00:17:26.895Z,48.76
2022-11-01T00:20:30.939Z,48.94
2022-11-01T00:23:34.959Z,48.90
2022-11-01T00:26:40.605Z,48.63
2022-11-01T00:29:44.694Z,48.70
2022-11-01T00:32:48.900Z,49.52
2022-11-01T00:35:53.179Z,51.46
2022-11-01T00:38:57.265Z,52.34
2022-11-01T00:42:02.875Z,50.97
2022-11-01T00:45:07.814Z,50.98
2022-11-01T00:48:11.930Z,50.08
2022-11-01T00:51:15.979Z,49.30
2022-11-01T00:54:20.143Z,50.11
2022-11-01T00:57:25.805Z,49.82
2022-11-01T01:00:29.894Z,49.83
2022-11-01T01:03:34.092Z,49.82
2022-11-01T01:06:38.017Z,49.82
2022-11-01T01:09:42.153Z,49.60
2022-11-01T01:12:47.701Z,49.28
2022-11-01T01:15:51.687Z,49.10
2022-11-01T01:18:56.384Z,49.08
2022-11-01T01:22:01.418Z,49.37
2022-11-01T01:25:05.935Z,49.61
2022-11-01T01:28:11.510Z,49.47
2022-11-01T01:31:16.072Z,49.23
2022-11-01T01:34:20.762Z,50.56
2022-11-01T01:37:24.802Z,50.35
2022-11-01T01:40:28.854Z,51.87
2022-11-01T01:43:44.704Z,52.35
2022-11-01T01:46:48.805Z,52.23
2022-11-01T01:49:57.173Z,51.72
2022-11-01T01:53:07.152Z,51.43
2022-11-01T01:56:14.137Z,51.03
2022-11-01T01:59:19.792Z,50.57
2022-11-01T02:02:24.011Z,50.63
2022-11-01T02:05:39.684Z,50.64
2022-11-01T02:08:46.445Z,50.89
2022-11-01T02:11:50.375Z,50.71
2022-11-01T02:14:56.200Z,51.38
2022-11-01T02:18:11.910Z,51.87
2022-11-01T02:21:52.463Z,52.44
2022-11-01T02:25:25.814Z,51.80
2022-11-01T02:28:49.119Z,52.93
2022-11-01T02:32:13.378Z,51.76
2022-11-01T02:35:25.324Z,51.44
2022-11-01T02:38:36.761Z,51.35
2022-11-01T02:41:46.847Z,51.14
2022-11-01T02:44:56.998Z,51.05
2022-11-01T02:48:04.044Z,50.64
2022-11-01T02:51:08.593Z,50.92
2022-11-01T02:54:22.412Z,51.02
2022-11-01T02:57:32.904Z,50.71
2022-11-01T03:00:38.875Z,51.31
2022-11-01T03:03:47.490Z,51.68
2022-11-01T03:06:56.002Z,51.46
2022-11-01T03:10:00.596Z,51.47
2022-11-01T03:13:15.194Z,51.08
2022-11-01T03:16:24.602Z,51.12
2022-11-01T03:19:40.208Z,51.59
2022-11-01T03:22:48.810Z,51.73
2022-11-01T03:25:57.573Z,52.35
2022-11-01T03:29:05.642Z,51.78
2022-11-01T03:32:11.253Z,52.35
2022-11-01T03:35:20.358Z,52.31
2022-11-01T03:38:31.994Z,52.76
2022-11-01T03:41:41.064Z,52.53
2022-11-01T03:44:48.873Z,52.45
2022-11-01T03:47:53.077Z,52.66
2022-11-01T03:50:58.691Z,52.49
2022-11-01T03:54:02.576Z,52.27
2022-11-01T03:57:06.643Z,52.45
2022-11-01T04:00:12.325Z,52.57
2022-11-01T04:03:16.410Z,52.92
2022-11-01T04:06:22.083Z,52.55
2022-11-01T04:09:26.201Z,53.36
2022-11-01T04:12:30.233Z,53.89
2022-11-01T04:15:51.404Z,53.47
2022-11-01T04:19:12.769Z,53.56
2022-11-01T04:22:20.697Z,53.09
2022-11-01T04:25:27.797Z,53.13
2022-11-01T04:28:32.073Z,53.31
2022-11-01T04:31:38.340Z,53.07
2022-11-01T04:34:45.463Z,53.44
2022-11-01T04:37:57.509Z,53.29
2022-11-01T04:41:01.718Z,53.77
2022-11-01T04:44:06.088Z,54.80
2022-11-01T04:47:10.395Z,54.71
2022-11-01T04:50:14.595Z,56.32
2022-11-01T04:53:20.377Z,54.64
2022-11-01T04:56:24.467Z,53.87
2022-11-01T04:59:28.685Z,53.79
2022-11-01T05:02:32.855Z,54.40
2022-11-01T05:05:38.316Z,53.65
2022-11-01T05:08:44.078Z,53.96
2022-11-01T05:11:48.450Z,53.64
2022-11-01T05:14:56.689Z,53.73
2022-11-01T05:18:02.225Z,53.46
2022-11-01T05:21:06.465Z,53.54
2022-11-01T05:24:12.125Z,53.48
2022-11-01T05:27:16.444Z,53.33
2022-11-01T05:30:20.575Z,53.87
2022-11-01T05:33:24.812Z,54.16
2022-11-01T05:36:28.950Z,53.08
2022-11-01T05:39:34.638Z,53.21
2022-11-01T05:42:40.629Z,53.15
2022-11-01T05:45:44.879Z,53.26
2022-11-01T05:48:49.036Z,53.75
2022-11-01T05:51:53.145Z,54.07
2022-11-01T05:54:59.095Z,55.15
2022-11-01T05:58:03.309Z,53.54
2022-11-01T06:01:09.377Z,53.03
2022-11-01T06:04:13.692Z,52.73
2022-11-01T06:07:18.447Z,52.05
2022-11-01T06:10:24.058Z,51.33
2022-11-01T06:13:28.308Z,51.40
2022-11-01T06:16:32.475Z,50.77
2022-11-01T06:19:36.816Z,50.38
2022-11-01T06:22:41.375Z,49.37
2022-11-01T06:25:47.278Z,49.23
2022-11-01T06:28:51.375Z,48.28
2022-11-01T06:31:55.588Z,47.84
2022-11-01T06:34:59.738Z,46.78
2022-11-01T06:38:05.047Z,46.28
2022-11-01T06:41:10.860Z,46.71
2022-11-01T06:44:15.059Z,46.73
2022-11-01T06:47:19.318Z,46.48
2022-11-01T06:50:23.515Z,45.92
2022-11-01T06:53:27.819Z,45.10
2022-11-01T06:56:33.429Z,44.62
2022-11-01T06:59:37.639Z,43.86
2022-11-01T07:02:41.874Z,43.89
2022-11-01T07:05:46.095Z,44.00
2022-11-01T07:08:50.205Z,43.81
2022-11-01T07:11:55.908Z,43.71
2022-11-01T07:15:00.199Z,43.16
2022-11-01T07:18:06.794Z,42.62
2022-11-01T07:21:11.583Z,42.01
2022-11-01T07:24:15.970Z,41.87
2022-11-01T07:27:21.736Z,40.96
2022-11-01T07:30:26.425Z,41.46
2022-11-01T07:33:30.695Z,40.63
2022-11-01T07:36:35.162Z,40.00
2022-11-01T07:39:39.538Z,39.51
2022-11-01T07:42:50.045Z,39.18
2022-11-01T07:45:54.266Z,39.17
2022-11-01T07:49:00.766Z,39.35
2022-11-01T07:52:05.625Z,39.03
2022-11-01T07:55:10.966Z,39.49
2022-11-01T07:58:17.800Z,38.73
2022-11-01T08:01:24.896Z,37.60
2022-11-01T08:04:33.589Z,37.26
2022-11-01T08:07:40.459Z,37.86
2022-11-01T08:10:46.831Z,37.23
2022-11-01T08:13:52.637Z,37.61
2022-11-01T08:17:02.021Z,37.06
2022-11-01T08:20:14.046Z,36.84
2022-11-01T08:23:19.034Z,36.96
2022-11-01T08:26:24.072Z,36.93
2022-11-01T08:29:32.769Z,36.53
2022-11-01T08:32:40.880Z,36.36
2022-11-01T08:35:50.691Z,36.47
2022-11-01T08:38:58.803Z,36.24
2022-11-01T08:42:06.056Z,35.75
2022-11-01T08:45:12.455Z,36.14
2022-11-01T08:48:21.681Z,36.38
2022-11-01T08:54:44.923Z,36.04
2022-11-01T08:57:49.758Z,37.27
2022-11-01T09:01:06.322Z,37.67
2022-11-01T09:04:21.666Z,35.74
2022-11-01T09:07:30.289Z,35.92
2022-11-01T09:10:34.574Z,35.69
2022-11-01T09:13:38.889Z,36.04
2022-11-01T09:16:44.650Z,35.93
2022-11-01T09:19:48.928Z,34.64
2022-11-01T09:22:53.786Z,34.91
2022-11-01T09:26:04.217Z,34.33
2022-11-01T09:29:08.767Z,34.76
2022-11-01T09:32:14.507Z,34.10
2022-11-01T09:35:19.159Z,33.74
2022-11-01T09:38:23.373Z,33.99
2022-11-01T09:41:34.861Z,33.41
2022-11-01T09:44:46.243Z,33.64
2022-11-01T09:47:55.200Z,33.32
2022-11-01T09:51:01.134Z,33.45
2022-11-01T09:54:07.840Z,33.76
2022-11-01T09:57:19.880Z,33.50
2022-11-01T10:00:24.284Z,33.42
2022-11-01T10:03:42.375Z,33.16
2022-11-01T10:06:53.774Z,32.84
2022-11-01T10:10:06.903Z,33.08
2022-11-01T10:13:36.942Z,32.94
2022-11-01T10:16:43.033Z,32.21
2022-11-01T10:19:51.533Z,32.93
2022-11-01T10:22:55.761Z,32.79
2022-11-01T10:25:59.846Z,32.95
2022-11-01T10:29:09.376Z,32.17
2022-11-01T10:32:24.669Z,32.79
2022-11-01T10:35:35.669Z,32.90
2022-11-01T10:42:11.454Z,32.41
2022-11-01T10:45:20.948Z,32.27
2022-11-01T10:48:32.240Z,32.02
2022-11-01T10:51:38.461Z,31.60
2022-11-01T10:54:45.271Z,31.22
2022-11-01T10:57:54.594Z,31.47
2022-11-01T11:00:59.039Z,31.12
2022-11-01T11:04:06.488Z,31.31
2022-11-01T11:07:19.917Z,31.20
2022-11-01T11:10:30.714Z,31.00
2022-11-01T11:13:36.879Z,30.28
2022-11-01T11:16:46.163Z,31.03
2022-11-01T11:19:54.043Z,30.75
2022-11-01T11:23:04.561Z,31.08
2022-11-01T11:26:16.776Z,31.03
2022-11-01T11:29:37.434Z,31.37
2022-11-01T11:32:49.819Z,30.86
2022-11-01T11:36:01.500Z,30.79
2022-11-01T11:39:07.730Z,30.90
2022-11-01T11:42:16.572Z,30.79
2022-11-01T11:45:24.722Z,30.65
2022-11-01T11:48:29.064Z,30.83
2022-11-01T11:51:37.853Z,30.71
2022-11-01T11:54:45.280Z,30.92
2022-11-01T11:57:53.804Z,31.05
2022-11-01T12:01:04.573Z,30.93
2022-11-01T12:04:11.366Z,30.84
2022-11-01T12:07:33.510Z,31.29
2022-11-01T12:10:41.410Z,30.98
2022-11-01T12:13:49.394Z,31.25
2022-11-01T12:16:53.741Z,30.65
2022-11-01T12:20:10.030Z,30.71
2022-11-01T12:23:18.890Z,30.99
2022-11-01T12:26:26.001Z,31.03
2022-11-01T12:29:35.301Z,30.97
2022-11-01T12:32:49.152Z,30.94
2022-11-01T12:35:56.104Z,31.01
2022-11-01T12:39:09.614Z,31.20
2022-11-01T12:42:21.425Z,31.01
2022-11-01T12:45:32.243Z,30.40
2022-11-01T12:48:42.310Z,31.12
2022-11-01T12:51:50.454Z,31.32
2022-11-01T12:55:05.771Z,31.26
2022-11-01T12:58:16.266Z,31.01
2022-11-01T13:01:31.125Z,31.48
2022-11-01T13:04:39.162Z,31.43
2022-11-01T13:07:57.544Z,31.19
2022-11-01T13:11:15.350Z,31.10
2022-11-01T13:14:38.181Z,30.98
2022-11-01T13:17:49.959Z,31.27
2022-11-01T13:21:00.020Z,30.97
2022-11-01T13:24:12.590Z,31.65
2022-11-01T13:27:22.934Z,32.21
2022-11-01T13:30:28.780Z,32.00
2022-11-01T13:33:41.140Z,31.72
2022-11-01T13:36:50.160Z,31.76
2022-11-01T13:40:10.194Z,31.65
2022-11-01T13:43:17.340Z,31.85
2022-11-01T13:46:59.334Z,32.13
2022-11-01T13:50:32.944Z,32.15
2022-11-01T13:53:43.694Z,32.43
2022-11-01T13:56:56.591Z,32.38
2022-11-01T14:00:02.585Z,32.20
2022-11-01T14:03:23.319Z,32.18
2022-11-01T14:06:31.606Z,32.35
2022-11-01T14:09:45.301Z,32.48
2022-11-01T14:13:17.203Z,33.12
2022-11-01T14:16:23.211Z,33.42
2022-11-01T14:19:27.657Z,33.68
2022-11-01T14:22:33.865Z,33.85
2022-11-01T14:25:38.030Z,34.08
2022-11-01T14:28:46.790Z,34.30
2022-11-01T14:31:54.095Z,34.57
2022-11-01T14:35:10.019Z,34.61
2022-11-01T14:38:16.231Z,35.18
2022-11-01T14:41:21.832Z,35.49
2022-11-01T14:44:33.713Z,36.31
2022-11-01T14:47:43.770Z,36.50
2022-11-01T14:50:54.072Z,36.11
2022-11-01T14:54:03.670Z,36.95
2022-11-01T14:57:21.993Z,37.38
2022-11-01T15:00:32.520Z,37.57
2022-11-01T15:03:36.643Z,37.48
2022-11-01T15:06:45.082Z,38.29
2022-11-01T15:10:00.591Z,37.38
2022-11-01T15:13:05.121Z,38.21
2022-11-01T15:16:16.136Z,38.28
2022-11-01T15:19:28.800Z,38.22
2022-11-01T15:22:34.921Z,38.28
2022-11-01T15:25:41.231Z,38.67
2022-11-01T15:28:51.530Z,38.77
2022-11-01T15:32:00.374Z,39.29
2022-11-01T15:35:18.140Z,38.96
2022-11-01T15:38:22.531Z,39.92
2022-11-01T15:41:29.673Z,39.92
2022-11-01T15:44:34.044Z,39.81
2022-11-01T15:47:45.639Z,40.26
2022-11-01T15:50:53.673Z,39.89
2022-11-01T15:54:03.420Z,39.83
2022-11-01T15:57:15.021Z,40.08
2022-11-01T16:00:22.543Z,39.89
2022-11-01T16:03:32.460Z,40.26
2022-11-01T16:06:42.355Z,40.27
2022-11-01T16:09:49.003Z,40.61
2022-11-01T16:12:54.454Z,41.21
2022-11-01T16:16:06.700Z,40.59
2022-11-01T16:19:31.073Z,41.43
2022-11-01T16:22:38.286Z,41.27
2022-11-01T16:25:42.953Z,41.78
2022-11-01T16:28:48.041Z,41.60
2022-11-01T16:32:09.766Z,41.75
2022-11-01T16:35:32.972Z,41.66
2022-11-01T16:38:45.229Z,41.66
2022-11-01T16:41:49.955Z,41.88
2022-11-01T16:44:57.216Z,42.45
2022-11-01T16:48:01.760Z,42.01
2022-11-01T16:51:08.091Z,42.01
2022-11-01T16:54:12.902Z,42.43
2022-11-01T16:57:25.594Z,42.90
2022-11-01T17:00:29.866Z,42.78
2022-11-01T17:03:34.201Z,43.00
2022-11-01T17:06:39.860Z,43.02
2022-11-01T17:09:44.320Z,42.87
2022-11-01T17:12:48.921Z,43.40
2022-11-01T17:15:54.494Z,43.62
2022-11-01T17:19:00.435Z,43.24
2022-11-01T17:22:10.434Z,43.76
2022-11-01T17:25:20.459Z,43.44
2022-11-01T17:28:25.522Z,44.03
2022-11-01T17:31:30.761Z,44.08
2022-11-01T17:34:35.094Z,43.64
2022-11-01T17:37:41.505Z,43.40
2022-11-01T17:40:47.043Z,43.56
2022-11-01T17:43:51.353Z,43.77
2022-11-01T17:46:55.713Z,43.36
2022-11-01T17:50:00.144Z,43.58
2022-11-01T17:53:06.173Z,43.75
2022-11-01T17:56:16.021Z,44.90
2022-11-01T17:59:20.500Z,45.24
2022-11-01T18:02:24.845Z,45.68
2022-11-01T18:05:29.201Z,47.10
2022-11-01T18:08:36.396Z,47.01
2022-11-01T18:11:47.701Z,47.72
2022-11-01T18:14:59.514Z,47.25
2022-11-01T18:18:22.810Z,47.13
2022-11-01T18:21:33.896Z,46.92
2022-11-01T18:24:46.841Z,47.64
2022-11-01T18:27:51.594Z,47.44
2022-11-01T18:30:58.516Z,47.61
2022-11-01T18:34:09.361Z,47.47
2022-11-01T18:37:23.412Z,47.22
2022-11-01T18:40:36.426Z,47.25
2022-11-01T18:43:40.680Z,47.12
2022-11-01T18:46:51.566Z,47.45
2022-11-01T18:50:05.635Z,47.44
2022-11-01T18:53:15.844Z,47.33
2022-11-01T18:56:25.619Z,47.11
2022-11-01T18:59:33.106Z,47.06
2022-11-01T19:02:37.309Z,46.99
2022-11-01T19:05:43.097Z,46.63
2022-11-01T19:08:53.347Z,47.08
2022-11-01T19:12:03.994Z,47.50
2022-11-01T19:15:22.453Z,48.13
2022-11-01T19:18:27.247Z,47.42
2022-11-01T19:21:37.544Z,47.37
2022-11-01T19:24:41.815Z,47.20
2022-11-01T19:27:48.331Z,47.00
2022-11-01T19:30:54.006Z,47.40
2022-11-01T19:34:00.921Z,47.13
2022-11-01T19:37:16.644Z,47.10
2022-11-01T19:40:30.185Z,47.32
2022-11-01T19:43:35.897Z,46.86
2022-11-01T19:46:40.221Z,46.87
2022-11-01T19:49:45.193Z,47.31
2022-11-01T19:52:49.864Z,47.16
2022-11-01T19:55:56.582Z,47.40
2022-11-01T19:59:05.139Z,47.82
2022-11-01T20:02:18.866Z,47.65
2022-11-01T20:05:30.151Z,47.94
2022-11-01T20:08:35.711Z,48.48
2022-11-01T20:11:40.201Z,48.42
2022-11-01T20:14:46.121Z,48.76
2022-11-01T20:17:50.960Z,48.52
2022-11-01T20:20:56.247Z,48.33
2022-11-01T20:24:04.264Z,48.28
2022-11-01T20:27:09.029Z,48.24
2022-11-01T20:30:17.735Z,48.01
2022-11-01T20:33:22.401Z,47.72
2022-11-01T20:36:26.713Z,47.62
2022-11-01T20:39:30.922Z,47.90
2022-11-01T20:42:44.334Z,48.13
2022-11-01T20:45:50.092Z,47.68
2022-11-01T20:48:54.549Z,47.96
2022-11-01T20:52:13.451Z,47.74
2022-11-01T20:55:23.301Z,47.64
2022-11-01T20:58:29.202Z,47.85
2022-11-01T21:01:34.966Z,48.01
2022-11-01T21:04:40.236Z,47.90
2022-11-01T21:07:47.845Z,47.97
2022-11-01T21:10:57.874Z,48.36
2022-11-01T21:14:02.662Z,48.23
2022-11-01T21:17:18.583Z,48.70
2022-11-01T21:20:25.700Z,48.32
2022-11-01T21:23:34.964Z,48.29
2022-11-01T21:26:42.343Z,48.51
2022-11-01T21:29:49.096Z,48.73
2022-11-01T21:32:54.816Z,48.03
2022-11-01T21:35:59.116Z,48.68
2022-11-01T21:39:05.007Z,48.41
2022-11-01T21:42:30.186Z,49.98
2022-11-01T21:45:35.134Z,52.07
2022-11-01T21:48:40.916Z,52.25
2022-11-01T21:51:45.015Z,50.82
2022-11-01T21:54:50.143Z,50.78
2022-11-01T21:57:54.256Z,50.16
2022-11-01T22:00:58.830Z,50.34
2022-11-01T22:04:04.768Z,50.01
2022-11-01T22:07:10.416Z,49.87
2022-11-01T22:10:15.366Z,49.44
2022-11-01T22:13:21.305Z,49.78
2022-11-01T22:16:25.638Z,49.60
2022-11-01T22:19:31.388Z,50.17
2022-11-01T22:22:35.766Z,50.52
2022-11-01T22:25:41.931Z,50.49
2022-11-01T22:28:46.166Z,51.44
2022-11-01T22:31:50.366Z,50.54
2022-11-01T22:34:56.268Z,50.52
2022-11-01T22:38:03.116Z,49.95
2022-11-01T22:41:13.567Z,50.37
2022-11-01T22:44:20.607Z,49.95
2022-11-01T22:47:32.047Z,49.97
2022-11-01T22:50:38.796Z,50.01
2022-11-01T22:53:43.244Z,50.69
2022-11-01T22:56:47.653Z,50.32
2022-11-01T22:59:54.023Z,50.90
2022-11-01T23:03:04.283Z,50.87
2022-11-01T23:06:34.645Z,50.30
2022-11-01T23:09:40.894Z,50.77
2022-11-01T23:13:02.280Z,50.31
2022-11-01T23:16:18.777Z,50.16
2022-11-01T23:19:22.953Z,50.54
2022-11-01T23:22:33.233Z,50.95
2022-11-01T23:25:37.344Z,50.58
2022-11-01T23:28:43.506Z,50.62
2022-11-01T23:31:47.483Z,50.95
2022-11-01T23:34:52.045Z,50.36
2022-11-01T23:37:59.934Z,50.79
2022-11-01T23:41:04.863Z,51.01
2022-11-01T23:44:20.855Z,51.06
2022-11-01T23:47:28.303Z,51.18
2022-11-01T23:50:35.954Z,52.03
2022-11-01T23:53:47.108Z,51.22
2022-11-01T23:56:51.147Z,50.67
2022-11-01T23:59:55.343Z,50.49
